createdAt,value
2023-03-17T00:01:14.521Z,8.00
2023-03-17T00:03:41.734Z,5.93
2023-03-17T00:06:16.858Z,14.57
2023-03-17T00:08:45.729Z,8.63
2023-03-17T00:11:16.965Z,6.75
2023-03-17T00:13:44.634Z,3.63
2023-03-17T00:16:26.994Z,5.15
2023-03-17T00:18:54.577Z,6.82
2023-03-17T00:21:29.268Z,7.40
2023-03-17T00:23:56.213Z,8.73
2023-03-17T00:26:23.183Z,7.78
2023-03-17T00:28:51.011Z,4.60
2023-03-17T00:31:21.053Z,5.75
2023-03-17T00:33:49.131Z,4.90
2023-03-17T00:36:18.209Z,11.40
2023-03-17T00:38:45.986Z,3.78
2023-03-17T00:41:12.976Z,4.55
2023-03-17T00:43:40.256Z,8.25
2023-03-17T00:46:35.633Z,6.13
2023-03-17T00:51:44.658Z,3.78
2023-03-17T00:54:11.857Z,4.38
2023-03-17T00:56:39.450Z,3.78
2023-03-17T00:59:22.708Z,4.07
2023-03-17T01:01:49.326Z,6.18
2023-03-17T01:04:15.984Z,3.60
2023-03-17T01:06:43.189Z,3.60
2023-03-17T01:09:14.717Z,5.20
2023-03-17T01:11:42.028Z,4.55
2023-03-17T01:14:10.512Z,4.93
2023-03-17T01:16:36.982Z,4.68
2023-03-17T01:19:04.613Z,7.35
2023-03-17T01:21:31.150Z,4.68
2023-03-17T01:23:57.616Z,4.75
2023-03-17T01:26:26.042Z,8.02
2023-03-17T01:28:52.669Z,4.75
2023-03-17T01:31:19.563Z,4.72
2023-03-17T01:33:46.144Z,3.70
2023-03-17T01:36:12.669Z,6.10
2023-03-17T01:38:39.175Z,4.45
2023-03-17T01:41:05.683Z,4.22
2023-03-17T01:43:32.782Z,3.42
2023-03-17T01:46:22.653Z,6.20
2023-03-17T01:49:14.414Z,4.85
2023-03-17T01:52:15.883Z,5.80
2023-03-17T01:54:56.189Z,5.40
2023-03-17T01:57:31.922Z,7.22
2023-03-17T02:00:08.023Z,5.00
2023-03-17T02:02:42.747Z,3.92
2023-03-17T02:05:12.136Z,3.55
2023-03-17T02:07:40.513Z,4.68
2023-03-17T02:10:08.766Z,3.60
2023-03-17T02:12:37.503Z,4.15
2023-03-17T02:15:05.283Z,5.60
2023-03-17T02:17:32.031Z,2.97
2023-03-17T02:20:32.726Z,3.50
2023-03-17T02:23:00.329Z,5.72
2023-03-17T02:25:28.672Z,4.55
2023-03-17T02:27:59.957Z,4.15
2023-03-17T02:30:26.600Z,2.90
2023-03-17T02:32:53.094Z,5.82
2023-03-17T02:35:21.764Z,5.50
2023-03-17T02:37:48.205Z,6.55
2023-03-17T02:40:15.194Z,6.20
2023-03-17T02:42:42.015Z,5.35
2023-03-17T02:45:10.074Z,5.28
2023-03-17T02:47:38.090Z,3.75
2023-03-17T02:50:05.546Z,7.05
2023-03-17T02:52:32.073Z,4.03
2023-03-17T02:54:58.512Z,4.68
2023-03-17T02:57:24.967Z,4.47
2023-03-17T02:59:51.511Z,5.18
2023-03-17T03:02:18.115Z,4.63
2023-03-17T03:04:44.616Z,4.53
2023-03-17T03:07:11.475Z,3.58
2023-03-17T03:09:37.922Z,3.45
2023-03-17T03:12:04.581Z,4.85
2023-03-17T03:14:32.395Z,2.95
2023-03-17T03:16:59.568Z,5.72
2023-03-17T03:19:26.047Z,5.53
2023-03-17T03:21:52.506Z,4.47
2023-03-17T03:24:18.936Z,3.50
2023-03-17T03:26:45.458Z,5.40
2023-03-17T03:29:12.166Z,6.18
2023-03-17T03:31:38.625Z,4.32
2023-03-17T03:34:05.079Z,6.47
2023-03-17T03:36:32.286Z,5.90
2023-03-17T03:38:59.739Z,6.78
2023-03-17T03:41:26.303Z,3.45
2023-03-17T03:43:52.975Z,4.60
2023-03-17T03:46:19.599Z,3.47
2023-03-17T03:48:46.039Z,5.53
2023-03-17T03:51:12.498Z,4.45
2023-03-17T03:53:38.970Z,5.97
2023-03-17T03:56:05.916Z,5.68
2023-03-17T03:58:32.429Z,9.60
2023-03-17T04:00:58.884Z,13.68
2023-03-17T04:03:25.362Z,35.13
2023-03-17T04:05:52.374Z,28.00
2023-03-17T04:08:18.829Z,25.42
2023-03-17T04:10:45.274Z,24.00
2023-03-17T04:13:12.843Z,18.30
2023-03-17T04:15:39.336Z,31.60
2023-03-17T04:18:05.799Z,26.27
2023-03-17T04:20:32.925Z,20.83
2023-03-17T04:22:59.685Z,25.40
2023-03-17T04:25:26.257Z,28.42
2023-03-17T04:27:52.720Z,21.38
2023-03-17T04:30:19.221Z,26.95
2023-03-17T04:32:46.354Z,14.35
2023-03-17T04:35:19.882Z,16.75
2023-03-17T04:37:46.520Z,16.90
2023-03-17T04:40:13.983Z,12.43
2023-03-17T04:42:40.972Z,15.63
2023-03-17T04:45:09.503Z,16.67
2023-03-17T04:47:35.955Z,13.20
2023-03-17T04:50:02.479Z,12.73
2023-03-17T04:52:29.104Z,14.43
2023-03-17T04:54:55.890Z,12.52
2023-03-17T04:57:24.172Z,10.43
2023-03-17T04:59:50.862Z,15.00
2023-03-17T05:02:18.809Z,14.13
2023-03-17T05:04:45.701Z,8.40
2023-03-17T05:07:12.797Z,6.90
2023-03-17T05:09:39.248Z,5.35
2023-03-17T05:12:06.252Z,7.50
2023-03-17T05:14:32.715Z,5.82
2023-03-17T05:16:59.198Z,8.18
2023-03-17T05:19:26.782Z,5.45
2023-03-17T05:21:53.296Z,4.65
2023-03-17T05:24:19.818Z,4.97
2023-03-17T05:26:46.388Z,3.85
2023-03-17T05:29:12.859Z,6.78
2023-03-17T05:31:39.290Z,5.85
2023-03-17T05:34:05.801Z,6.55
2023-03-17T05:36:33.446Z,5.85
2023-03-17T05:38:59.928Z,5.85
2023-03-17T05:41:26.454Z,5.90
2023-03-17T05:43:52.928Z,6.30
2023-03-17T05:46:20.548Z,6.03
2023-03-17T05:48:47.257Z,7.30
2023-03-17T05:51:13.748Z,4.85
2023-03-17T05:53:40.313Z,5.68
2023-03-17T05:56:07.336Z,6.00
2023-03-17T05:58:33.811Z,3.25
2023-03-17T06:01:00.466Z,6.97
2023-03-17T06:03:27.439Z,6.55
2023-03-17T06:05:54.043Z,6.07
2023-03-17T06:08:21.280Z,6.05
2023-03-17T06:10:47.892Z,7.70
2023-03-17T06:13:14.812Z,8.38
2023-03-17T06:15:42.394Z,5.78
2023-03-17T06:18:08.940Z,7.85
2023-03-17T06:20:36.539Z,4.82
2023-03-17T06:23:05.287Z,5.32
2023-03-17T06:25:34.421Z,7.53
2023-03-17T06:28:02.280Z,5.22
2023-03-17T06:30:29.001Z,5.78
2023-03-17T06:32:56.569Z,4.57
2023-03-17T06:35:23.308Z,3.78
2023-03-17T06:37:49.812Z,4.55
2023-03-17T06:40:16.342Z,5.97
2023-03-17T06:42:42.833Z,6.10
2023-03-17T06:45:09.849Z,6.20
2023-03-17T06:47:37.231Z,10.32
2023-03-17T06:50:04.786Z,9.15
2023-03-17T06:52:31.582Z,5.93
2023-03-17T06:54:58.035Z,8.60
2023-03-17T06:57:24.469Z,12.23
2023-03-17T06:59:50.911Z,5.70
2023-03-17T07:02:17.365Z,5.53
2023-03-17T07:04:43.996Z,10.10
2023-03-17T07:07:10.856Z,8.05
2023-03-17T07:09:37.341Z,7.28
2023-03-17T07:12:05.023Z,7.13
2023-03-17T07:14:36.677Z,9.27
2023-03-17T07:17:04.312Z,5.13
2023-03-17T07:19:31.172Z,7.38
2023-03-17T07:21:57.671Z,4.37
2023-03-17T07:24:24.755Z,5.30
2023-03-17T07:26:51.591Z,7.60
2023-03-17T07:29:18.288Z,6.27
2023-03-17T07:31:45.340Z,9.10
2023-03-17T07:34:12.621Z,6.90
2023-03-17T07:36:39.967Z,7.80
2023-03-17T07:39:06.556Z,4.80
2023-03-17T07:41:33.263Z,5.23
2023-03-17T07:43:59.951Z,5.20
2023-03-17T07:46:26.558Z,5.67
2023-03-17T07:48:53.307Z,7.70
2023-03-17T07:51:22.166Z,9.30
2023-03-17T07:53:50.147Z,6.60
2023-03-17T07:56:17.696Z,6.20
2023-03-17T07:58:44.756Z,6.90
2023-03-17T08:01:11.193Z,7.93
2023-03-17T08:03:39.973Z,6.20
2023-03-17T08:06:08.565Z,4.80
2023-03-17T08:08:35.146Z,6.67
2023-03-17T08:11:03.707Z,5.33
2023-03-17T08:13:34.076Z,3.87
2023-03-17T08:16:00.823Z,3.90
2023-03-17T08:18:27.333Z,5.20
2023-03-17T08:20:53.772Z,4.37
2023-03-17T08:23:20.480Z,5.27
2023-03-17T08:25:47.717Z,6.00
2023-03-17T08:28:15.327Z,7.17
2023-03-17T08:30:43.006Z,8.33
2023-03-17T08:33:09.832Z,5.83
2023-03-17T08:35:37.173Z,8.97
2023-03-17T08:38:04.170Z,5.47
2023-03-17T08:40:31.360Z,7.40
2023-03-17T08:42:58.068Z,7.10
2023-03-17T08:45:24.657Z,3.77
2023-03-17T08:47:51.229Z,3.57
2023-03-17T08:50:20.260Z,5.33
2023-03-17T08:52:46.943Z,3.10
2023-03-17T08:55:14.391Z,2.90
2023-03-17T08:57:41.397Z,3.20
2023-03-17T09:00:11.049Z,2.40
2023-03-17T09:02:43.043Z,3.40
2023-03-17T09:05:11.985Z,4.20
2023-03-17T09:07:38.692Z,2.50
2023-03-17T09:10:05.718Z,6.20
2023-03-17T09:12:34.163Z,3.60
2023-03-17T09:15:01.791Z,2.90
2023-03-17T09:17:28.364Z,2.63
2023-03-17T09:19:55.073Z,2.70
2023-03-17T09:22:21.661Z,3.20
2023-03-17T09:24:48.310Z,2.23
2023-03-17T09:27:14.831Z,2.13
2023-03-17T09:29:42.093Z,1.97
2023-03-17T09:32:08.920Z,2.60
2023-03-17T09:34:35.801Z,2.33
2023-03-17T09:37:02.372Z,2.07
2023-03-17T09:39:28.981Z,2.90
2023-03-17T09:42:21.396Z,2.23
2023-03-17T09:44:56.870Z,2.47
2023-03-17T09:47:44.712Z,2.90
2023-03-17T09:50:18.583Z,2.53
2023-03-17T09:52:45.402Z,6.77
2023-03-17T09:55:23.976Z,2.17
2023-03-17T09:57:52.250Z,3.00
2023-03-17T10:00:22.991Z,3.87
2023-03-17T10:02:49.531Z,3.63
2023-03-17T10:05:31.107Z,2.60
2023-03-17T10:08:02.819Z,3.90
2023-03-17T10:11:07.211Z,3.80
2023-03-17T10:13:52.693Z,3.30
2023-03-17T10:16:21.944Z,4.40
2023-03-17T10:19:01.913Z,3.20
2023-03-17T10:21:33.623Z,6.13
2023-03-17T10:24:02.891Z,3.53
2023-03-17T10:26:33.244Z,3.63
2023-03-17T10:29:03.963Z,4.00
2023-03-17T10:31:37.860Z,4.60
2023-03-17T10:34:13.084Z,1.93
2023-03-17T10:36:42.550Z,2.70
2023-03-17T10:39:12.624Z,3.10
2023-03-17T10:41:41.983Z,1.87
2023-03-17T10:44:11.030Z,2.07
2023-03-17T10:46:38.586Z,2.40
2023-03-17T10:49:10.839Z,2.33
2023-03-17T10:51:38.390Z,3.80
2023-03-17T10:54:17.723Z,2.83
2023-03-17T10:56:49.750Z,3.60
2023-03-17T10:59:23.612Z,4.33
2023-03-17T11:01:54.023Z,5.30
2023-03-17T11:04:26.424Z,2.57
2023-03-17T11:06:56.243Z,1.90
2023-03-17T11:09:23.799Z,2.30
2023-03-17T11:12:01.586Z,3.47
2023-03-17T11:14:28.338Z,4.37
2023-03-17T11:16:59.904Z,8.10
2023-03-17T11:19:43.207Z,4.63
2023-03-17T11:22:17.567Z,2.87
2023-03-17T11:24:53.714Z,4.40
2023-03-17T11:27:30.136Z,2.60
2023-03-17T11:30:32.863Z,2.20
2023-03-17T11:33:40.154Z,3.00
2023-03-17T11:36:18.472Z,2.60
2023-03-17T11:38:58.546Z,2.37
2023-03-17T11:41:44.752Z,2.50
2023-03-17T11:44:29.408Z,2.53
2023-03-17T11:46:55.774Z,2.63
2023-03-17T11:49:28.538Z,2.87
2023-03-17T11:52:04.983Z,2.87
2023-03-17T11:55:04.357Z,2.40
2023-03-17T11:57:46.842Z,2.70
2023-03-17T12:00:33.687Z,2.87
2023-03-17T12:03:42.411Z,3.93
2023-03-17T12:06:25.784Z,2.50
2023-03-17T12:08:57.529Z,2.97
2023-03-17T12:11:28.679Z,3.70
2023-03-17T12:14:20.270Z,3.63
2023-03-17T12:16:50.908Z,2.43
2023-03-17T12:19:27.945Z,2.30
2023-03-17T12:21:59.238Z,3.37
2023-03-17T12:24:36.936Z,2.70
2023-03-17T12:27:07.521Z,3.43
2023-03-17T12:29:43.200Z,5.20
2023-03-17T12:32:33.147Z,5.43
2023-03-17T12:35:07.273Z,1.90
2023-03-17T12:37:34.033Z,4.70
2023-03-17T12:40:09.794Z,3.43
2023-03-17T12:42:53.507Z,2.30
2023-03-17T12:46:08.799Z,2.60
2023-03-17T12:48:54.245Z,2.53
2023-03-17T12:51:54.801Z,3.13
2023-03-17T12:54:29.988Z,5.40
2023-03-17T12:57:15.735Z,3.97
2023-03-17T12:59:43.944Z,4.70
2023-03-17T13:02:18.736Z,4.23
2023-03-17T13:04:57.843Z,4.70
2023-03-17T13:07:27.005Z,4.80
2023-03-17T13:09:53.408Z,5.20
2023-03-17T13:12:44.575Z,2.97
2023-03-17T13:15:30.679Z,3.10
2023-03-17T13:18:12.153Z,3.73
2023-03-17T13:20:41.506Z,3.90
2023-03-17T13:23:11.026Z,3.33
2023-03-17T13:25:45.419Z,3.80
2023-03-17T13:28:12.017Z,2.60
2023-03-17T13:30:38.591Z,2.40
2023-03-17T13:33:16.429Z,3.10
2023-03-17T13:35:48.020Z,4.20
2023-03-17T13:38:33.125Z,2.80
2023-03-17T13:41:21.592Z,3.57
2023-03-17T13:44:20.522Z,2.80
2023-03-17T13:46:48.209Z,2.00
2023-03-17T13:49:26.937Z,2.67
2023-03-17T13:52:27.374Z,1.73
2023-03-17T13:55:18.868Z,3.50
2023-03-17T13:58:10.588Z,2.30
2023-03-17T14:00:43.785Z,2.93
2023-03-17T14:03:18.689Z,0.90
2023-03-17T14:05:50.334Z,1.40
2023-03-17T14:08:22.126Z,2.20
2023-03-17T14:10:56.989Z,1.47
2023-03-17T14:13:26.361Z,1.13
2023-03-17T14:16:03.552Z,2.70
2023-03-17T14:18:35.383Z,1.20
2023-03-17T14:21:09.423Z,3.83
2023-03-17T14:23:37.679Z,2.37
2023-03-17T14:26:05.013Z,2.20
2023-03-17T14:28:33.493Z,2.00
2023-03-17T14:31:07.498Z,1.43
2023-03-17T14:33:38.109Z,1.50
2023-03-17T14:36:14.072Z,2.40
2023-03-17T14:38:50.716Z,1.80
2023-03-17T14:41:25.776Z,2.60
2023-03-17T14:43:56.604Z,1.10
2023-03-17T14:46:31.914Z,1.00
2023-03-17T14:49:01.551Z,1.23
2023-03-17T14:51:35.619Z,1.37
2023-03-17T14:54:05.875Z,1.90
2023-03-17T14:56:37.551Z,1.50
2023-03-17T14:59:17.240Z,1.40
2023-03-17T15:01:48.509Z,1.47
2023-03-17T15:04:17.824Z,1.97
2023-03-17T15:06:50.683Z,1.13
2023-03-17T15:09:19.308Z,2.10
2023-03-17T15:11:46.669Z,1.80
2023-03-17T15:14:32.071Z,1.37
2023-03-17T15:17:01.043Z,1.63
2023-03-17T15:19:30.703Z,2.03
2023-03-17T15:21:59.835Z,6.10
2023-03-17T15:24:39.496Z,3.30
2023-03-17T15:27:17.014Z,1.60
2023-03-17T15:29:44.420Z,3.00
2023-03-17T15:32:14.212Z,4.90
2023-03-17T15:34:40.890Z,2.87
2023-03-17T15:37:22.202Z,2.07
2023-03-17T15:39:49.924Z,1.70
2023-03-17T15:42:18.623Z,2.97
2023-03-17T15:44:45.142Z,3.07
2023-03-17T15:47:15.775Z,5.43
2023-03-17T15:49:43.765Z,3.00
2023-03-17T15:52:17.381Z,2.27
2023-03-17T15:54:44.238Z,1.83
2023-03-17T15:57:12.821Z,1.57
2023-03-17T15:59:40.224Z,3.67
2023-03-17T16:02:29.291Z,2.60
2023-03-17T16:04:55.834Z,4.33
2023-03-17T16:07:22.474Z,2.70
2023-03-17T16:09:49.345Z,4.47
2023-03-17T16:12:15.839Z,3.43
2023-03-17T16:14:42.772Z,3.07
2023-03-17T16:17:20.995Z,5.10
2023-03-17T16:19:48.119Z,3.13
2023-03-17T16:22:40.087Z,4.67
2023-03-17T16:25:30.877Z,2.00
2023-03-17T16:27:59.425Z,2.70
2023-03-17T16:30:31.489Z,4.20
2023-03-17T16:33:02.096Z,4.47
2023-03-17T16:35:29.385Z,2.53
2023-03-17T16:37:56.414Z,6.30
2023-03-17T16:40:34.557Z,3.30
2023-03-17T16:43:08.271Z,3.53
2023-03-17T16:45:39.674Z,4.60
2023-03-17T16:48:06.273Z,6.47
2023-03-17T16:50:33.819Z,5.37
2023-03-17T16:53:00.396Z,6.13
2023-03-17T16:55:27.963Z,4.37
2023-03-17T16:57:56.513Z,3.33
2023-03-17T17:00:28.700Z,6.17
2023-03-17T17:02:55.748Z,3.83
2023-03-17T17:05:28.581Z,5.47
2023-03-17T17:07:56.989Z,5.70
2023-03-17T17:10:24.940Z,5.83
2023-03-17T17:12:51.834Z,6.77
2023-03-17T17:15:20.045Z,3.10
2023-03-17T17:17:48.097Z,10.03
2023-03-17T17:20:21.821Z,3.50
2023-03-17T17:22:49.016Z,3.90
2023-03-17T17:25:18.716Z,5.03
2023-03-17T17:27:46.008Z,4.97
2023-03-17T17:30:15.378Z,6.43
2023-03-17T17:32:42.328Z,6.70
2023-03-17T17:35:09.338Z,4.27
2023-03-17T17:37:36.057Z,4.80
2023-03-17T17:40:03.600Z,4.80
2023-03-17T17:42:30.064Z,6.87
2023-03-17T17:44:56.566Z,3.90
2023-03-17T17:47:23.089Z,4.87
2023-03-17T17:49:49.547Z,4.77
2023-03-17T17:52:16.081Z,5.93
2023-03-17T17:54:42.546Z,5.40
2023-03-17T17:57:11.522Z,6.20
2023-03-17T17:59:38.155Z,5.57
2023-03-17T18:02:04.672Z,4.87
2023-03-17T18:04:31.175Z,5.63
2023-03-17T18:06:57.640Z,8.43
2023-03-17T18:09:24.123Z,7.00
2023-03-17T18:11:50.731Z,4.37
2023-03-17T18:14:17.176Z,5.13
2023-03-17T18:16:43.774Z,4.23
2023-03-17T18:19:12.486Z,5.00
2023-03-17T18:21:39.354Z,5.53
2023-03-17T18:24:05.912Z,4.87
2023-03-17T18:26:33.049Z,6.33
2023-03-17T18:28:59.728Z,5.60
2023-03-17T18:31:30.526Z,3.70
2023-03-17T18:34:02.665Z,6.23
2023-03-17T18:36:29.584Z,4.67
2023-03-17T18:38:56.458Z,4.87
2023-03-17T18:41:24.194Z,5.63
2023-03-17T18:43:50.841Z,3.40
2023-03-17T18:46:17.360Z,4.87
2023-03-17T18:48:43.860Z,6.23
2023-03-17T18:51:10.450Z,5.00
2023-03-17T18:53:38.177Z,7.30
2023-03-17T18:56:04.999Z,6.47
2023-03-17T18:58:31.674Z,5.33
2023-03-17T19:01:00.456Z,7.40
2023-03-17T19:03:27.951Z,5.40
2023-03-17T19:05:55.436Z,6.30
2023-03-17T19:08:22.462Z,6.13
2023-03-17T19:10:49.099Z,8.43
2023-03-17T19:13:16.025Z,4.90
2023-03-17T19:15:42.541Z,6.60
2023-03-17T19:18:09.614Z,6.70
2023-03-17T19:20:36.487Z,6.13
2023-03-17T19:23:06.939Z,7.43
2023-03-17T19:25:33.852Z,11.23
2023-03-17T19:28:00.525Z,4.80
2023-03-17T19:30:27.445Z,3.57
2023-03-17T19:32:53.993Z,12.17
2023-03-17T19:35:20.890Z,7.17
2023-03-17T19:37:47.375Z,10.50
2023-03-17T19:40:14.208Z,8.63
2023-03-17T19:42:40.941Z,7.13
2023-03-17T19:45:08.012Z,3.93
2023-03-17T19:47:34.521Z,7.23
2023-03-17T19:50:01.093Z,5.93
2023-03-17T19:52:27.574Z,7.37
2023-03-17T19:54:54.059Z,14.50
2023-03-17T19:57:20.835Z,7.77
2023-03-17T19:59:47.409Z,6.37
2023-03-17T20:02:15.317Z,10.33
2023-03-17T20:04:42.811Z,5.60
2023-03-17T20:07:10.267Z,5.40
2023-03-17T20:09:37.870Z,12.53
2023-03-17T20:12:05.071Z,5.00
2023-03-17T20:14:31.617Z,6.73
2023-03-17T20:16:58.096Z,7.10
2023-03-17T20:19:24.569Z,6.50
2023-03-17T20:21:51.332Z,7.77
2023-03-17T20:24:17.850Z,6.27
2023-03-17T20:26:49.327Z,6.47
2023-03-17T20:29:16.175Z,4.40
2023-03-17T20:31:42.686Z,7.27
2023-03-17T20:34:10.146Z,8.47
2023-03-17T20:36:37.366Z,5.00
2023-03-17T20:39:04.552Z,8.43
2023-03-17T20:41:31.228Z,5.83
2023-03-17T20:43:57.677Z,7.83
2023-03-17T20:46:25.214Z,9.43
2023-03-17T20:48:58.349Z,6.00
2023-03-17T20:51:25.899Z,6.10
2023-03-17T20:53:53.466Z,5.33
2023-03-17T20:56:22.308Z,6.07
2023-03-17T20:58:50.204Z,7.60
2023-03-17T21:01:20.463Z,7.97
2023-03-17T21:03:48.428Z,7.80
2023-03-17T21:06:15.239Z,7.97
2023-03-17T21:08:42.339Z,7.97
2023-03-17T21:11:09.254Z,6.50
2023-03-17T21:13:35.960Z,7.33
2023-03-17T21:16:02.840Z,6.00
2023-03-17T21:18:29.746Z,7.90
2023-03-17T21:20:56.744Z,6.40
2023-03-17T21:23:23.710Z,7.43
2023-03-17T21:25:56.493Z,8.53
2023-03-17T21:28:23.116Z,6.67
2023-03-17T21:30:49.931Z,6.13
2023-03-17T21:33:16.634Z,7.50
2023-03-17T21:35:43.283Z,7.20
2023-03-17T21:38:09.798Z,7.80
2023-03-17T21:40:36.305Z,8.00
2023-03-17T21:43:02.864Z,6.70
2023-03-17T21:45:29.425Z,8.00
2023-03-17T21:47:55.904Z,7.50
2023-03-17T21:50:23.069Z,7.20
2023-03-17T21:52:49.920Z,7.90
2023-03-17T21:55:16.530Z,6.33
2023-03-17T21:57:43.160Z,10.30
2023-03-17T22:00:11.606Z,6.70
2023-03-17T22:02:41.763Z,7.10
2023-03-17T22:05:09.146Z,7.93
2023-03-17T22:07:35.720Z,7.00
2023-03-17T22:10:05.575Z,10.73
2023-03-17T22:12:32.018Z,12.57
2023-03-17T22:14:58.674Z,7.23
2023-03-17T22:17:27.089Z,7.70
2023-03-17T22:19:53.562Z,8.80
2023-03-17T22:22:21.025Z,8.70
2023-03-17T22:24:48.080Z,7.50
2023-03-17T22:27:15.785Z,6.90
2023-03-17T22:29:42.648Z,9.73
2023-03-17T22:32:09.340Z,9.90
2023-03-17T22:34:36.676Z,7.77
2023-03-17T22:37:03.889Z,6.87
2023-03-17T22:39:30.505Z,9.40
2023-03-17T22:41:57.128Z,8.30
2023-03-17T22:44:23.560Z,7.77
2023-03-17T22:46:50.038Z,7.50
2023-03-17T22:49:16.884Z,9.70
2023-03-17T22:51:43.341Z,12.10
2023-03-17T22:54:11.627Z,7.50
2023-03-17T22:56:38.190Z,6.33
2023-03-17T22:59:04.662Z,10.33
2023-03-17T23:01:31.694Z,8.30
2023-03-17T23:03:58.264Z,7.40
2023-03-17T23:06:25.624Z,9.37
2023-03-17T23:08:52.420Z,7.60
2023-03-17T23:11:22.192Z,6.00
2023-03-17T23:13:49.160Z,6.03
2023-03-17T23:16:16.247Z,6.60
2023-03-17T23:18:46.463Z,9.40
2023-03-17T23:21:39.679Z,10.17
2023-03-17T23:24:07.833Z,9.27
2023-03-17T23:26:37.786Z,9.40
2023-03-17T23:29:05.838Z,9.60
2023-03-17T23:31:33.979Z,6.90
2023-03-17T23:34:00.476Z,7.27
2023-03-17T23:36:27.042Z,10.27
2023-03-17T23:38:53.512Z,7.70
2023-03-17T23:41:20.011Z,10.23
2023-03-17T23:43:46.791Z,5.50
2023-03-17T23:46:14.533Z,9.27
2023-03-17T23:48:42.793Z,9.63
2023-03-17T23:51:10.106Z,5.43
2023-03-17T23:53:36.608Z,5.63
2023-03-17T23:56:03.789Z,8.00
2023-03-17T23:58:30.329Z,6.87
